sensor_id;sensor_type;location;lat;lon;timestamp;pressure;altitude;pressure_sealevel;temperature;humidity
4590;BME280;2307;48.448;9.216;2023-06-26T00:01:25;95418.88;;;22.51;47.45
4590;BME280;2307;48.448;9.216;2023-06-26T00:03:54;95418.75;;;22.65;46.64
4590;BME280;2307;48.448;9.216;2023-06-26T00:06:21;95421.59;;;22.60;46.64
4590;BME280;2307;48.448;9.216;2023-06-26T00:08:51;95426.25;;;22.68;48.43
4590;BME280;2307;48.448;9.216;2023-06-26T00:11:18;95421.84;;;22.50;48.21
4590;BME280;2307;48.448;9.216;2023-06-26T00:13:44;95427.38;;;22.45;48.84
4590;BME280;2307;48.448;9.216;2023-06-26T00:16:10;95430.06;;;22.45;50.78
4590;BME280;2307;48.448;9.216;2023-06-26T00:18:37;95420.25;;;22.49;48.41
4590;BME280;2307;48.448;9.216;2023-06-26T00:21:03;95429.56;;;22.43;48.65
4590;BME280;2307;48.448;9.216;2023-06-26T00:23:29;95423.56;;;22.46;50.50
4590;BME280;2307;48.448;9.216;2023-06-26T00:25:59;95425.31;;;22.42;51.29
4590;BME280;2307;48.448;9.216;2023-06-26T00:28:26;95422.56;;;22.33;47.35
4590;BME280;2307;48.448;9.216;2023-06-26T00:30:52;95424.75;;;22.31;49.61
4590;BME280;2307;48.448;9.216;2023-06-26T00:33:19;95432.50;;;22.33;49.04
4590;BME280;2307;48.448;9.216;2023-06-26T00:35:45;95422.88;;;22.32;48.30
4590;BME280;2307;48.448;9.216;2023-06-26T00:38:11;95425.06;;;22.30;49.67
4590;BME280;2307;48.448;9.216;2023-06-26T00:40:38;95427.81;;;22.38;50.00
4590;BME280;2307;48.448;9.216;2023-06-26T00:43:05;95424.09;;;22.26;48.73
4590;BME280;2307;48.448;9.216;2023-06-26T00:45:32;95422.38;;;22.30;47.96
4590;BME280;2307;48.448;9.216;2023-06-26T00:47:58;95427.41;;;22.22;48.57
4590;BME280;2307;48.448;9.216;2023-06-26T00:50:25;95431.81;;;22.18;48.95
4590;BME280;2307;48.448;9.216;2023-06-26T00:52:51;95424.84;;;22.17;51.67
4590;BME280;2307;48.448;9.216;2023-06-26T00:55:19;95422.72;;;22.06;49.82
4590;BME280;2307;48.448;9.216;2023-06-26T00:57:46;95421.88;;;21.83;50.15
4590;BME280;2307;48.448;9.216;2023-06-26T01:00:14;95417.09;;;21.80;51.20
4590;BME280;2307;48.448;9.216;2023-06-26T01:02:41;95420.16;;;21.87;51.05
4590;BME280;2307;48.448;9.216;2023-06-26T01:05:07;95418.13;;;22.06;50.02
4590;BME280;2307;48.448;9.216;2023-06-26T01:07:38;95414.41;;;21.80;50.83
4590;BME280;2307;48.448;9.216;2023-06-26T01:10:05;95415.31;;;21.89;50.99
4590;BME280;2307;48.448;9.216;2023-06-26T01:12:31;95416.34;;;21.66;50.70
4590;BME280;2307;48.448;9.216;2023-06-26T01:14:58;95415.06;;;21.63;51.37
4590;BME280;2307;48.448;9.216;2023-06-26T01:17:26;95410.94;;;21.44;52.29
4590;BME280;2307;48.448;9.216;2023-06-26T01:19:56;95404.19;;;21.33;52.36
4590;BME280;2307;48.448;9.216;2023-06-26T01:22:25;95411.66;;;21.36;52.41
4590;BME280;2307;48.448;9.216;2023-06-26T01:24:56;95403.31;;;21.37;52.32
4590;BME280;2307;48.448;9.216;2023-06-26T01:27:29;95404.19;;;21.33;53.06
4590;BME280;2307;48.448;9.216;2023-06-26T01:29:57;95400.44;;;21.34;52.63
4590;BME280;2307;48.448;9.216;2023-06-26T01:32:25;95403.97;;;21.43;52.87
4590;BME280;2307;48.448;9.216;2023-06-26T01:34:51;95404.97;;;21.47;52.47
4590;BME280;2307;48.448;9.216;2023-06-26T01:37:17;95401.09;;;21.39;52.58
4590;BME280;2307;48.448;9.216;2023-06-26T01:39:44;95401.91;;;21.40;52.18
4590;BME280;2307;48.448;9.216;2023-06-26T01:42:10;95399.91;;;21.32;52.53
4590;BME280;2307;48.448;9.216;2023-06-26T01:44:40;95397.19;;;21.45;51.96
4590;BME280;2307;48.448;9.216;2023-06-26T01:47:08;95387.47;;;21.36;52.84
4590;BME280;2307;48.448;9.216;2023-06-26T01:49:41;95395.31;;;21.46;53.30
4590;BME280;2307;48.448;9.216;2023-06-26T01:52:12;95385.38;;;21.46;52.38
4590;BME280;2307;48.448;9.216;2023-06-26T01:54:42;95394.22;;;21.47;52.58
4590;BME280;2307;48.448;9.216;2023-06-26T01:57:13;95386.72;;;21.57;53.57
4590;BME280;2307;48.448;9.216;2023-06-26T01:59:40;95388.69;;;21.65;53.26
4590;BME280;2307;48.448;9.216;2023-06-26T02:02:08;95383.81;;;21.54;53.07
4590;BME280;2307;48.448;9.216;2023-06-26T02:04:35;95386.78;;;21.66;54.47
4590;BME280;2307;48.448;9.216;2023-06-26T02:07:02;95385.44;;;21.77;53.67
4590;BME280;2307;48.448;9.216;2023-06-26T02:09:28;95390.34;;;21.75;55.41
4590;BME280;2307;48.448;9.216;2023-06-26T02:11:55;95389.16;;;21.67;54.60
4590;BME280;2307;48.448;9.216;2023-06-26T02:14:21;95390.00;;;21.54;55.50
4590;BME280;2307;48.448;9.216;2023-06-26T02:16:49;95387.34;;;21.41;56.98
4590;BME280;2307;48.448;9.216;2023-06-26T02:19:16;95383.81;;;21.54;57.35
4590;BME280;2307;48.448;9.216;2023-06-26T02:21:46;95385.06;;;21.34;59.51
4590;BME280;2307;48.448;9.216;2023-06-26T02:24:12;95388.88;;;21.33;61.26
4590;BME280;2307;48.448;9.216;2023-06-26T02:26:39;95387.66;;;21.39;61.11
4590;BME280;2307;48.448;9.216;2023-06-26T02:29:05;95389.75;;;21.42;62.12
4590;BME280;2307;48.448;9.216;2023-06-26T02:31:31;95390.16;;;21.36;61.99
4590;BME280;2307;48.448;9.216;2023-06-26T02:33:59;95385.06;;;21.34;62.17
4590;BME280;2307;48.448;9.216;2023-06-26T02:36:25;95388.06;;;21.33;63.61
4590;BME280;2307;48.448;9.216;2023-06-26T02:38:52;95392.88;;;21.22;63.98
4590;BME280;2307;48.448;9.216;2023-06-26T02:41:18;95397.44;;;21.22;65.31
4590;BME280;2307;48.448;9.216;2023-06-26T02:43:44;95391.19;;;21.26;65.25
4590;BME280;2307;48.448;9.216;2023-06-26T02:46:11;95393.06;;;21.26;66.06
4590;BME280;2307;48.448;9.216;2023-06-26T02:48:37;95395.56;;;21.22;62.04
4590;BME280;2307;48.448;9.216;2023-06-26T02:51:05;95391.28;;;21.07;63.07
4590;BME280;2307;48.448;9.216;2023-06-26T02:53:31;95394.88;;;20.89;65.22
4590;BME280;2307;48.448;9.216;2023-06-26T02:55:58;95400.25;;;20.89;61.82
4590;BME280;2307;48.448;9.216;2023-06-26T02:58:24;95391.09;;;20.90;61.39
4590;BME280;2307;48.448;9.216;2023-06-26T03:00:50;95400.06;;;20.86;61.59
4590;BME280;2307;48.448;9.216;2023-06-26T03:03:18;95400.72;;;20.78;61.01
4590;BME280;2307;48.448;9.216;2023-06-26T03:05:45;95395.28;;;20.69;61.62
4590;BME280;2307;48.448;9.216;2023-06-26T03:08:12;95403.22;;;20.74;61.05
4590;BME280;2307;48.448;9.216;2023-06-26T03:10:39;95400.25;;;20.89;61.83
4590;BME280;2307;48.448;9.216;2023-06-26T03:13:05;95405.22;;;20.82;60.91
4590;BME280;2307;48.448;9.216;2023-06-26T03:15:31;95408.38;;;20.84;61.18
4590;BME280;2307;48.448;9.216;2023-06-26T03:17:58;95402.81;;;20.94;62.35
4590;BME280;2307;48.448;9.216;2023-06-26T03:20:24;95401.03;;;21.03;63.64
4590;BME280;2307;48.448;9.216;2023-06-26T03:22:51;95404.81;;;21.02;62.79
4590;BME280;2307;48.448;9.216;2023-06-26T03:25:19;95406.22;;;21.13;63.82
4590;BME280;2307;48.448;9.216;2023-06-26T03:27:45;95401.25;;;21.21;61.80
4590;BME280;2307;48.448;9.216;2023-06-26T03:30:12;95404.63;;;21.12;65.00
4590;BME280;2307;48.448;9.216;2023-06-26T03:32:38;95404.63;;;21.12;65.19
4590;BME280;2307;48.448;9.216;2023-06-26T03:35:05;95400.94;;;21.08;64.60
4590;BME280;2307;48.448;9.216;2023-06-26T03:37:31;95399.06;;;21.09;67.15
4590;BME280;2307;48.448;9.216;2023-06-26T03:39:58;95408.41;;;20.98;67.95
4590;BME280;2307;48.448;9.216;2023-06-26T03:42:25;95409.78;;;20.95;71.14
4590;BME280;2307;48.448;9.216;2023-06-26T03:44:52;95412.88;;;20.89;70.61
4590;BME280;2307;48.448;9.216;2023-06-26T03:47:18;95414.94;;;20.78;69.82
4590;BME280;2307;48.448;9.216;2023-06-26T03:49:44;95420.13;;;20.75;69.79
4590;BME280;2307;48.448;9.216;2023-06-26T03:52:13;95420.13;;;20.61;70.29
4590;BME280;2307;48.448;9.216;2023-06-26T03:54:39;95420.91;;;20.61;72.52
4590;BME280;2307;48.448;9.216;2023-06-26T03:57:06;95419.41;;;20.42;77.07
4590;BME280;2307;48.448;9.216;2023-06-26T03:59:34;95424.50;;;20.57;79.69
4590;BME280;2307;48.448;9.216;2023-06-26T04:02:00;95424.69;;;20.60;79.94
4590;BME280;2307;48.448;9.216;2023-06-26T04:04:27;95418.91;;;20.53;79.54
4590;BME280;2307;48.448;9.216;2023-06-26T04:06:53;95419.91;;;20.44;82.57
4590;BME280;2307;48.448;9.216;2023-06-26T04:09:19;95416.13;;;20.58;84.43
4590;BME280;2307;48.448;9.216;2023-06-26T04:11:46;95407.38;;;20.53;82.12
4590;BME280;2307;48.448;9.216;2023-06-26T04:14:12;95407.47;;;20.34;85.58
4590;BME280;2307;48.448;9.216;2023-06-26T04:16:40;95412.13;;;20.29;84.95
4590;BME280;2307;48.448;9.216;2023-06-26T04:19:06;95421.16;;;20.33;87.88
4590;BME280;2307;48.448;9.216;2023-06-26T04:21:33;95416.72;;;20.42;83.17
4590;BME280;2307;48.448;9.216;2023-06-26T04:23:59;95417.03;;;20.54;83.28
4590;BME280;2307;48.448;9.216;2023-06-26T04:26:25;95417.13;;;20.62;76.97
4590;BME280;2307;48.448;9.216;2023-06-26T04:28:52;95412.78;;;20.66;77.24
4590;BME280;2307;48.448;9.216;2023-06-26T04:31:19;95411.38;;;20.69;78.55
4590;BME280;2307;48.448;9.216;2023-06-26T04:33:47;95410.09;;;20.80;78.22
4590;BME280;2307;48.448;9.216;2023-06-26T04:36:15;95411.19;;;20.93;74.79
4590;BME280;2307;48.448;9.216;2023-06-26T04:38:42;95407.59;;;20.97;75.07
4590;BME280;2307;48.448;9.216;2023-06-26T04:41:08;95406.81;;;21.10;75.70
4590;BME280;2307;48.448;9.216;2023-06-26T04:43:35;95399.84;;;21.23;84.78
4590;BME280;2307;48.448;9.216;2023-06-26T04:46:01;95407.69;;;21.19;75.16
4590;BME280;2307;48.448;9.216;2023-06-26T04:48:28;95406.00;;;21.37;78.55
4590;BME280;2307;48.448;9.216;2023-06-26T04:50:57;95416.22;;;21.35;82.35
4590;BME280;2307;48.448;9.216;2023-06-26T04:53:24;95412.88;;;21.30;85.20
4590;BME280;2307;48.448;9.216;2023-06-26T04:55:51;95408.69;;;21.24;87.96
4590;BME280;2307;48.448;9.216;2023-06-26T04:58:17;95412.19;;;21.24;87.86
4590;BME280;2307;48.448;9.216;2023-06-26T05:00:44;95415.88;;;21.14;88.98
4590;BME280;2307;48.448;9.216;2023-06-26T05:03:11;95411.00;;;21.16;88.69
4590;BME280;2307;48.448;9.216;2023-06-26T05:05:38;95412.69;;;21.12;87.34
4590;BME280;2307;48.448;9.216;2023-06-26T05:08:15;95410.00;;;21.12;86.76
4590;BME280;2307;48.448;9.216;2023-06-26T05:10:41;95401.66;;;21.14;86.90
4590;BME280;2307;48.448;9.216;2023-06-26T05:13:08;95398.66;;;21.15;86.54
4590;BME280;2307;48.448;9.216;2023-06-26T05:15:34;95403.59;;;21.22;85.66
4590;BME280;2307;48.448;9.216;2023-06-26T05:18:00;95402.25;;;21.25;83.38
4590;BME280;2307;48.448;9.216;2023-06-26T05:20:27;95397.81;;;21.29;82.70
4590;BME280;2307;48.448;9.216;2023-06-26T05:22:53;95405.47;;;21.35;83.77
4590;BME280;2307;48.448;9.216;2023-06-26T05:25:21;95402.78;;;21.35;84.30
4590;BME280;2307;48.448;9.216;2023-06-26T05:27:49;95405.56;;;21.44;85.03
4590;BME280;2307;48.448;9.216;2023-06-26T05:30:16;95403.63;;;21.58;88.45
4590;BME280;2307;48.448;9.216;2023-06-26T05:32:42;95405.72;;;21.61;89.99
4590;BME280;2307;48.448;9.216;2023-06-26T05:35:11;95401.94;;;21.62;85.58
4590;BME280;2307;48.448;9.216;2023-06-26T05:37:40;95410.53;;;21.72;81.50
4590;BME280;2307;48.448;9.216;2023-06-26T05:40:08;95408.56;;;21.78;78.66
4590;BME280;2307;48.448;9.216;2023-06-26T05:42:36;95410.91;;;21.93;84.44
4590;BME280;2307;48.448;9.216;2023-06-26T05:45:02;95412.38;;;21.99;95.17
4590;BME280;2307;48.448;9.216;2023-06-26T05:47:29;95412.41;;;22.08;97.88
4590;BME280;2307;48.448;9.216;2023-06-26T05:49:55;95418.34;;;22.18;98.28
4590;BME280;2307;48.448;9.216;2023-06-26T05:52:22;95420.44;;;22.21;96.60
4590;BME280;2307;48.448;9.216;2023-06-26T05:54:49;95423.97;;;22.31;90.28
4590;BME280;2307;48.448;9.216;2023-06-26T05:57:16;95422.72;;;22.37;94.15
4590;BME280;2307;48.448;9.216;2023-06-26T05:59:44;95420.19;;;22.32;87.62
4590;BME280;2307;48.448;9.216;2023-06-26T06:02:11;95415.94;;;22.39;87.05
4590;BME280;2307;48.448;9.216;2023-06-26T06:04:37;95428.03;;;22.50;84.97
4590;BME280;2307;48.448;9.216;2023-06-26T06:07:03;95424.06;;;22.48;81.82
4590;BME280;2307;48.448;9.216;2023-06-26T06:09:30;95428.03;;;22.50;77.09
4590;BME280;2307;48.448;9.216;2023-06-26T06:11:56;95421.25;;;22.53;78.03
4590;BME280;2307;48.448;9.216;2023-06-26T06:14:22;95424.13;;;22.56;81.07
4590;BME280;2307;48.448;9.216;2023-06-26T06:16:50;95428.22;;;22.54;79.38
4590;BME280;2307;48.448;9.216;2023-06-26T06:19:17;95428.41;;;22.57;76.77
4590;BME280;2307;48.448;9.216;2023-06-26T06:21:43;95426.84;;;22.65;75.15
4590;BME280;2307;48.448;9.216;2023-06-26T06:24:09;95434.06;;;22.78;75.06
4590;BME280;2307;48.448;9.216;2023-06-26T06:26:36;95424.00;;;22.92;67.68
4590;BME280;2307;48.448;9.216;2023-06-26T06:29:02;95423.22;;;23.09;65.98
4590;BME280;2307;48.448;9.216;2023-06-26T06:31:28;95426.16;;;23.29;66.11
4590;BME280;2307;48.448;9.216;2023-06-26T06:33:56;95418.09;;;23.47;65.46
4590;BME280;2307;48.448;9.216;2023-06-26T06:36:22;95417.84;;;23.74;62.96
4590;BME280;2307;48.448;9.216;2023-06-26T06:38:49;95423.22;;;23.83;62.55
4590;BME280;2307;48.448;9.216;2023-06-26T06:41:15;95419.09;;;24.02;55.73
4590;BME280;2307;48.448;9.216;2023-06-26T06:43:42;95421.47;;;24.29;51.29
4590;BME280;2307;48.448;9.216;2023-06-26T06:46:08;95422.84;;;24.53;49.33
4590;BME280;2307;48.448;9.216;2023-06-26T06:48:35;95425.00;;;24.68;47.86
4590;BME280;2307;48.448;9.216;2023-06-26T06:51:02;95433.56;;;24.87;46.71
4590;BME280;2307;48.448;9.216;2023-06-26T06:53:29;95432.09;;;24.98;46.92
4590;BME280;2307;48.448;9.216;2023-06-26T06:55:56;95437.16;;;25.08;45.00
4590;BME280;2307;48.448;9.216;2023-06-26T06:58:23;95439.00;;;25.16;44.85
4590;BME280;2307;48.448;9.216;2023-06-26T07:00:49;95438.03;;;25.21;45.17
4590;BME280;2307;48.448;9.216;2023-06-26T07:03:16;95427.34;;;25.24;44.91
4590;BME280;2307;48.448;9.216;2023-06-26T07:05:42;95426.50;;;25.32;44.27
4590;BME280;2307;48.448;9.216;2023-06-26T07:08:10;95437.88;;;25.47;43.33
4590;BME280;2307;48.448;9.216;2023-06-26T07:10:36;95425.31;;;25.51;44.46
4590;BME280;2307;48.448;9.216;2023-06-26T07:13:03;95441.53;;;25.51;44.19
4590;BME280;2307;48.448;9.216;2023-06-26T07:15:29;95429.41;;;25.57;44.57
4590;BME280;2307;48.448;9.216;2023-06-26T07:17:55;95435.09;;;25.64;44.36
4590;BME280;2307;48.448;9.216;2023-06-26T07:20:22;95432.25;;;25.60;43.75
4590;BME280;2307;48.448;9.216;2023-06-26T07:22:49;95435.22;;;25.67;44.49
4590;BME280;2307;48.448;9.216;2023-06-26T07:25:17;95439.97;;;25.70;45.57
4590;BME280;2307;48.448;9.216;2023-06-26T07:27:44;95432.72;;;25.83;45.33
4590;BME280;2307;48.448;9.216;2023-06-26T07:30:11;95429.81;;;25.88;45.42
4590;BME280;2307;48.448;9.216;2023-06-26T07:32:37;95433.78;;;25.91;45.32
4590;BME280;2307;48.448;9.216;2023-06-26T07:35:05;95440.38;;;26.02;44.30
4590;BME280;2307;48.448;9.216;2023-06-26T07:37:32;95447.69;;;26.01;43.75
4590;BME280;2307;48.448;9.216;2023-06-26T07:39:58;95443.47;;;25.92;44.26
4590;BME280;2307;48.448;9.216;2023-06-26T07:42:26;95452.13;;;26.06;45.27
4590;BME280;2307;48.448;9.216;2023-06-26T07:44:52;95465.19;;;26.04;44.66
4590;BME280;2307;48.448;9.216;2023-06-26T07:47:19;95455.94;;;26.05;45.92
4590;BME280;2307;48.448;9.216;2023-06-26T07:49:45;95466.78;;;26.05;45.43
4590;BME280;2307;48.448;9.216;2023-06-26T07:52:12;95456.63;;;26.02;45.41
4590;BME280;2307;48.448;9.216;2023-06-26T07:54:40;95459.66;;;26.00;45.73
4590;BME280;2307;48.448;9.216;2023-06-26T07:57:06;95461.22;;;26.01;45.79
4590;BME280;2307;48.448;9.216;2023-06-26T07:59:35;95455.63;;;26.06;44.36
4590;BME280;2307;48.448;9.216;2023-06-26T08:02:01;95460.84;;;26.11;46.51
4590;BME280;2307;48.448;9.216;2023-06-26T08:04:28;95464.28;;;26.20;46.35
4590;BME280;2307;48.448;9.216;2023-06-26T08:06:57;95462.63;;;26.28;46.52
4590;BME280;2307;48.448;9.216;2023-06-26T08:09:24;95464.81;;;26.34;45.34
4590;BME280;2307;48.448;9.216;2023-06-26T08:11:50;95456.47;;;26.39;43.44
4590;BME280;2307;48.448;9.216;2023-06-26T08:14:17;95464.59;;;26.39;42.71
4590;BME280;2307;48.448;9.216;2023-06-26T08:16:46;95469.56;;;26.37;43.39
4590;BME280;2307;48.448;9.216;2023-06-26T08:19:12;95465.72;;;26.38;43.71
4590;BME280;2307;48.448;9.216;2023-06-26T08:21:39;95467.38;;;26.31;44.52
4590;BME280;2307;48.448;9.216;2023-06-26T08:24:06;95453.56;;;26.45;44.56
4590;BME280;2307;48.448;9.216;2023-06-26T08:26:32;95447.56;;;26.51;44.98
4590;BME280;2307;48.448;9.216;2023-06-26T08:28:59;95452.94;;;26.60;43.46
4590;BME280;2307;48.448;9.216;2023-06-26T08:31:25;95450.22;;;26.60;44.66
4590;BME280;2307;48.448;9.216;2023-06-26T08:33:53;95449.00;;;26.69;44.76
4590;BME280;2307;48.448;9.216;2023-06-26T08:36:19;95449.25;;;26.76;44.89
4590;BME280;2307;48.448;9.216;2023-06-26T08:38:45;95454.53;;;26.73;45.05
4590;BME280;2307;48.448;9.216;2023-06-26T08:41:12;95452.06;;;26.80;44.87
4590;BME280;2307;48.448;9.216;2023-06-26T08:43:38;95452.22;;;26.83;43.70
4590;BME280;2307;48.448;9.216;2023-06-26T08:46:05;95444.06;;;26.83;43.96
4590;BME280;2307;48.448;9.216;2023-06-26T08:48:32;95441.97;;;26.89;44.38
4590;BME280;2307;48.448;9.216;2023-06-26T08:51:00;95451.91;;;26.97;42.80
4590;BME280;2307;48.448;9.216;2023-06-26T08:53:29;95443.78;;;26.97;43.66
4590;BME280;2307;48.448;9.216;2023-06-26T08:55:57;95446.91;;;26.99;43.18
4590;BME280;2307;48.448;9.216;2023-06-26T08:58:26;95453.63;;;27.14;42.82
4590;BME280;2307;48.448;9.216;2023-06-26T09:00:52;95452.25;;;27.20;42.72
4590;BME280;2307;48.448;9.216;2023-06-26T09:03:20;95452.94;;;27.17;42.47
4590;BME280;2307;48.448;9.216;2023-06-26T09:05:47;95445.81;;;27.12;42.44
4590;BME280;2307;48.448;9.216;2023-06-26T09:08:15;95437.66;;;27.24;42.71
4590;BME280;2307;48.448;9.216;2023-06-26T09:10:41;95445.59;;;27.29;42.32
4590;BME280;2307;48.448;9.216;2023-06-26T09:13:07;95448.09;;;27.47;42.21
4590;BME280;2307;48.448;9.216;2023-06-26T09:15:37;95449.41;;;27.40;41.74
4590;BME280;2307;48.448;9.216;2023-06-26T09:18:04;95446.06;;;27.43;42.53
4590;BME280;2307;48.448;9.216;2023-06-26T09:20:31;95433.75;;;27.46;41.91
4590;BME280;2307;48.448;9.216;2023-06-26T09:22:58;95437.94;;;27.56;41.90
4590;BME280;2307;48.448;9.216;2023-06-26T09:25:26;95443.66;;;27.66;42.41
4590;BME280;2307;48.448;9.216;2023-06-26T09:27:53;95438.91;;;27.63;41.25
4590;BME280;2307;48.448;9.216;2023-06-26T09:30:20;95433.38;;;27.60;40.50
4590;BME280;2307;48.448;9.216;2023-06-26T09:32:46;95425.72;;;27.62;41.12
4590;BME280;2307;48.448;9.216;2023-06-26T09:35:13;95436.19;;;27.75;41.88
4590;BME280;2307;48.448;9.216;2023-06-26T09:37:39;95437.19;;;27.83;40.93
4590;BME280;2307;48.448;9.216;2023-06-26T09:40:06;95434.13;;;27.84;39.85
4590;BME280;2307;48.448;9.216;2023-06-26T09:42:34;95431.75;;;27.83;40.22
4590;BME280;2307;48.448;9.216;2023-06-26T09:45:01;95430.38;;;27.89;39.53
4590;BME280;2307;48.448;9.216;2023-06-26T09:47:29;95426.28;;;28.07;40.22
4590;BME280;2307;48.448;9.216;2023-06-26T09:50:20;95425.78;;;28.17;38.81
4590;BME280;2307;48.448;9.216;2023-06-26T09:52:47;95429.19;;;28.14;39.13
4590;BME280;2307;48.448;9.216;2023-06-26T09:55:14;95426.22;;;28.19;37.94
4590;BME280;2307;48.448;9.216;2023-06-26T09:57:41;95427.38;;;28.18;37.65
4590;BME280;2307;48.448;9.216;2023-06-26T10:00:09;95419.97;;;28.31;39.68
4590;BME280;2307;48.448;9.216;2023-06-26T10:02:37;95418.69;;;28.40;39.19
4590;BME280;2307;48.448;9.216;2023-06-26T10:05:03;95409.56;;;28.48;39.27
4590;BME280;2307;48.448;9.216;2023-06-26T10:07:30;95416.88;;;28.60;39.15
4590;BME280;2307;48.448;9.216;2023-06-26T10:09:57;95416.09;;;28.60;38.36
4590;BME280;2307;48.448;9.216;2023-06-26T10:12:25;95423.00;;;28.57;38.66
4590;BME280;2307;48.448;9.216;2023-06-26T10:14:54;95420.38;;;28.61;37.85
4590;BME280;2307;48.448;9.216;2023-06-26T10:17:22;95420.78;;;28.75;38.27
4590;BME280;2307;48.448;9.216;2023-06-26T10:19:50;95421.31;;;28.80;37.56
4590;BME280;2307;48.448;9.216;2023-06-26T10:22:20;95429.22;;;28.70;38.03
4590;BME280;2307;48.448;9.216;2023-06-26T10:24:48;95424.91;;;28.69;38.44
4590;BME280;2307;48.448;9.216;2023-06-26T10:27:16;95422.59;;;28.71;38.42
4590;BME280;2307;48.448;9.216;2023-06-26T10:29:43;95426.41;;;28.82;37.91
4590;BME280;2307;48.448;9.216;2023-06-26T10:32:12;95424.91;;;28.84;38.28
4590;BME280;2307;48.448;9.216;2023-06-26T10:34:47;95418.94;;;28.79;38.02
4590;BME280;2307;48.448;9.216;2023-06-26T10:37:14;95415.63;;;29.01;37.28
4590;BME280;2307;48.448;9.216;2023-06-26T10:39:46;95422.38;;;29.07;38.05
4590;BME280;2307;48.448;9.216;2023-06-26T10:42:14;95430.06;;;29.05;36.66
4590;BME280;2307;48.448;9.216;2023-06-26T10:44:41;95430.25;;;28.96;36.82
4590;BME280;2307;48.448;9.216;2023-06-26T10:47:08;95423.00;;;29.00;36.36
4590;BME280;2307;48.448;9.216;2023-06-26T10:49:36;95419.31;;;29.24;37.16
4590;BME280;2307;48.448;9.216;2023-06-26T10:52:04;95427.81;;;29.23;36.88
4590;BME280;2307;48.448;9.216;2023-06-26T10:54:42;95425.88;;;29.39;35.90
4590;BME280;2307;48.448;9.216;2023-06-26T10:57:09;95426.94;;;29.34;35.76
4590;BME280;2307;48.448;9.216;2023-06-26T10:59:38;95433.97;;;29.35;35.33
4590;BME280;2307;48.448;9.216;2023-06-26T11:02:05;95429.75;;;29.07;35.74
4590;BME280;2307;48.448;9.216;2023-06-26T11:04:40;95420.88;;;28.94;36.15
4590;BME280;2307;48.448;9.216;2023-06-26T11:07:19;95425.69;;;28.85;36.79
4590;BME280;2307;48.448;9.216;2023-06-26T11:09:55;95429.28;;;28.73;37.10
4590;BME280;2307;48.448;9.216;2023-06-26T11:12:35;95434.91;;;28.80;38.04
4590;BME280;2307;48.448;9.216;2023-06-26T11:17:41;95437.13;;;28.63;37.89
4590;BME280;2307;48.448;9.216;2023-06-26T11:20:11;95444.41;;;28.59;38.85
4590;BME280;2307;48.448;9.216;2023-06-26T11:22:49;95443.38;;;28.63;39.58
4590;BME280;2307;48.448;9.216;2023-06-26T11:25:19;95441.47;;;28.52;39.44
4590;BME280;2307;48.448;9.216;2023-06-26T11:27:45;95447.72;;;28.52;40.57
4590;BME280;2307;48.448;9.216;2023-06-26T11:30:24;95452.19;;;28.88;39.63
4590;BME280;2307;48.448;9.216;2023-06-26T11:32:51;95451.50;;;29.22;39.33
4590;BME280;2307;48.448;9.216;2023-06-26T11:35:23;95450.00;;;29.40;38.39
4590;BME280;2307;48.448;9.216;2023-06-26T11:37:54;95446.81;;;29.70;38.56
4590;BME280;2307;48.448;9.216;2023-06-26T11:40:22;95445.94;;;30.00;37.80
4590;BME280;2307;48.448;9.216;2023-06-26T11:42:52;95454.34;;;30.30;37.60
4590;BME280;2307;48.448;9.216;2023-06-26T11:45:18;95446.03;;;30.23;38.21
4590;BME280;2307;48.448;9.216;2023-06-26T11:47:52;95456.34;;;29.95;39.00
4590;BME280;2307;48.448;9.216;2023-06-26T11:50:18;95464.34;;;29.88;39.95
4590;BME280;2307;48.448;9.216;2023-06-26T11:52:46;95453.75;;;29.83;39.27
4590;BME280;2307;48.448;9.216;2023-06-26T11:55:18;95464.09;;;29.77;39.44
4590;BME280;2307;48.448;9.216;2023-06-26T11:57:47;95465.94;;;29.89;39.03
4590;BME280;2307;48.448;9.216;2023-06-26T12:00:15;95471.75;;;30.07;39.11
4590;BME280;2307;48.448;9.216;2023-06-26T12:02:42;95450.91;;;30.14;38.08
4590;BME280;2307;48.448;9.216;2023-06-26T12:05:08;95471.72;;;30.41;38.83
4590;BME280;2307;48.448;9.216;2023-06-26T12:07:35;95467.69;;;30.74;38.07
4590;BME280;2307;48.448;9.216;2023-06-26T12:10:03;95451.59;;;30.88;37.85
4590;BME280;2307;48.448;9.216;2023-06-26T12:12:31;95459.41;;;30.89;38.44
4590;BME280;2307;48.448;9.216;2023-06-26T12:14:58;95456.91;;;30.81;38.00
4590;BME280;2307;48.448;9.216;2023-06-26T12:17:25;95466.13;;;30.73;38.18
4590;BME280;2307;48.448;9.216;2023-06-26T12:19:51;95462.63;;;30.53;38.29
4590;BME280;2307;48.448;9.216;2023-06-26T12:22:18;95461.97;;;30.60;38.08
4590;BME280;2307;48.448;9.216;2023-06-26T12:24:45;95471.72;;;30.41;38.16
4590;BME280;2307;48.448;9.216;2023-06-26T12:27:13;95467.59;;;30.47;37.97
4590;BME280;2307;48.448;9.216;2023-06-26T12:29:40;95458.16;;;30.64;39.01
4590;BME280;2307;48.448;9.216;2023-06-26T12:32:18;95460.69;;;30.73;38.13
4590;BME280;2307;48.448;9.216;2023-06-26T12:34:46;95460.59;;;30.69;38.64
4590;BME280;2307;48.448;9.216;2023-06-26T12:37:13;95452.53;;;30.53;38.07
4590;BME280;2307;48.448;9.216;2023-06-26T12:39:46;95448.19;;;30.33;38.81
4590;BME280;2307;48.448;9.216;2023-06-26T12:42:15;95453.81;;;30.60;39.11
4590;BME280;2307;48.448;9.216;2023-06-26T12:44:41;95459.41;;;30.47;39.18
4590;BME280;2307;48.448;9.216;2023-06-26T12:47:08;95449.19;;;30.06;39.30
4590;BME280;2307;48.448;9.216;2023-06-26T12:49:35;95449.31;;;29.94;39.92
4590;BME280;2307;48.448;9.216;2023-06-26T12:52:03;95458.78;;;30.19;40.58
4590;BME280;2307;48.448;9.216;2023-06-26T12:54:30;95448.69;;;30.39;39.43
4590;BME280;2307;48.448;9.216;2023-06-26T12:56:56;95453.81;;;30.60;39.48
4590;BME280;2307;48.448;9.216;2023-06-26T12:59:35;95445.78;;;30.47;39.46
4590;BME280;2307;48.448;9.216;2023-06-26T13:02:02;95447.66;;;30.43;39.50
4590;BME280;2307;48.448;9.216;2023-06-26T13:04:29;95437.59;;;30.47;39.92
4590;BME280;2307;48.448;9.216;2023-06-26T13:09:26;95443.75;;;30.44;39.59
4590;BME280;2307;48.448;9.216;2023-06-26T13:11:53;95435.53;;;30.64;39.44
4590;BME280;2307;48.448;9.216;2023-06-26T13:14:20;95434.72;;;30.60;39.18
4590;BME280;2307;48.448;9.216;2023-06-26T13:16:47;95443.38;;;30.65;39.52
4590;BME280;2307;48.448;9.216;2023-06-26T13:19:26;95439.75;;;30.80;39.14
4590;BME280;2307;48.448;9.216;2023-06-26T13:21:53;95444.72;;;30.75;39.34
4590;BME280;2307;48.448;9.216;2023-06-26T13:24:19;95432.13;;;30.89;39.98
4590;BME280;2307;48.448;9.216;2023-06-26T13:26:45;95436.13;;;30.73;39.72
4590;BME280;2307;48.448;9.216;2023-06-26T13:29:12;95435.94;;;30.43;39.04